createdAt,value
2018-07-31T00:00:29.133Z,73.65
2018-07-31T00:02:58.262Z,74.78
2018-07-31T00:05:27.600Z,75.08
2018-07-31T00:07:56.697Z,75.31
2018-07-31T00:10:25.821Z,74.75
2018-07-31T00:12:54.941Z,74.10
2018-07-31T00:15:24.062Z,74.65
2018-07-31T00:17:53.174Z,74.42
2018-07-31T00:20:22.681Z,74.72
2018-07-31T00:22:51.814Z,74.75
2018-07-31T00:25:21.705Z,74.82
2018-07-31T00:27:50.842Z,75.46
2018-07-31T00:30:19.954Z,75.24
2018-07-31T00:32:49.058Z,74.58
2018-07-31T00:35:19.806Z,72.58
2018-07-31T00:37:49.095Z,72.05
2018-07-31T00:40:18.189Z,71.98
2018-07-31T00:42:47.281Z,72.28
2018-07-31T00:45:16.738Z,73.11
2018-07-31T00:47:45.826Z,74.87
2018-07-31T00:50:15.069Z,76.02
2018-07-31T00:52:44.208Z,77.60
2018-07-31T00:55:13.369Z,77.60
2018-07-31T00:57:42.477Z,77.91
2018-07-31T01:00:11.578Z,79.50
2018-07-31T01:02:40.710Z,79.75
2018-07-31T01:05:09.835Z,80.61
2018-07-31T01:07:39.418Z,80.04
2018-07-31T01:10:08.753Z,80.35
2018-07-31T01:12:37.874Z,79.40
2018-07-31T01:15:07.297Z,79.68
2018-07-31T01:17:36.522Z,80.02
2018-07-31T01:20:05.937Z,81.95
2018-07-31T01:22:35.202Z,82.70
2018-07-31T01:25:04.502Z,82.17
2018-07-31T01:27:33.945Z,80.28
2018-07-31T01:30:03.079Z,80.46
2018-07-31T01:32:32.301Z,80.51
2018-07-31T01:35:02.175Z,81.55
2018-07-31T01:37:32.105Z,81.29
2018-07-31T01:40:01.426Z,81.50
2018-07-31T01:42:31.310Z,82.10
2018-07-31T01:45:00.880Z,81.82
2018-07-31T01:47:30.298Z,82.78
2018-07-31T01:49:59.541Z,82.88
2018-07-31T01:52:29.226Z,81.96
2018-07-31T01:54:58.365Z,82.90
2018-07-31T01:57:27.477Z,84.03
2018-07-31T01:59:56.601Z,84.95
2018-07-31T02:02:25.757Z,85.68
2018-07-31T02:04:55.577Z,86.87
2018-07-31T02:07:24.741Z,85.45
2018-07-31T02:09:53.835Z,85.94
2018-07-31T02:12:24.530Z,86.37
2018-07-31T02:14:53.629Z,86.83
2018-07-31T02:17:22.936Z,86.65
2018-07-31T02:19:52.658Z,86.63
2018-07-31T02:22:21.825Z,87.00
2018-07-31T02:24:51.361Z,87.28
2018-07-31T02:27:20.498Z,87.99
2018-07-31T02:29:55.117Z,87.69
2018-07-31T02:32:24.618Z,88.83
2018-07-31T02:34:53.742Z,88.16
2018-07-31T02:37:22.838Z,88.70
2018-07-31T02:39:51.950Z,88.94
2018-07-31T02:42:21.815Z,89.54
2018-07-31T02:44:50.931Z,90.29
2018-07-31T02:47:20.038Z,90.93
2018-07-31T02:49:49.403Z,91.00
2018-07-31T02:52:19.254Z,90.97
2018-07-31T02:54:50.491Z,90.16
2018-07-31T02:57:19.699Z,90.45
2018-07-31T02:59:49.582Z,90.81
2018-07-31T03:02:19.511Z,91.15
2018-07-31T03:04:49.427Z,91.71
2018-07-31T03:07:18.550Z,91.53
2018-07-31T03:09:48.443Z,91.24
2018-07-31T03:12:17.589Z,91.68
2018-07-31T03:14:46.694Z,91.76
2018-07-31T03:17:16.552Z,92.00
2018-07-31T03:19:45.669Z,91.32
2018-07-31T03:22:14.767Z,91.51
2018-07-31T03:24:43.912Z,90.69
2018-07-31T03:27:13.070Z,90.80
2018-07-31T03:29:42.163Z,91.72
2018-07-31T03:32:11.291Z,91.81
2018-07-31T03:34:40.434Z,91.70
2018-07-31T03:37:10.330Z,90.87
2018-07-31T03:39:39.615Z,89.92
2018-07-31T03:42:09.034Z,88.76
2018-07-31T03:44:38.282Z,88.10
2018-07-31T03:47:07.537Z,87.89
2018-07-31T03:49:37.542Z,87.35
2018-07-31T03:52:06.949Z,89.34
2018-07-31T03:54:35.939Z,89.29
2018-07-31T03:57:05.112Z,89.52
2018-07-31T03:59:34.638Z,89.79
2018-07-31T04:02:03.769Z,88.58
2018-07-31T04:04:34.319Z,88.82
2018-07-31T04:07:03.418Z,88.90
2018-07-31T04:09:32.534Z,89.42
2018-07-31T04:12:01.683Z,88.16
2018-07-31T04:14:30.842Z,87.37
2018-07-31T04:17:00.002Z,87.34
2018-07-31T04:19:29.174Z,87.71
2018-07-31T04:21:59.857Z,87.75
2018-07-31T04:24:28.977Z,87.23
2018-07-31T04:26:58.098Z,86.98
2018-07-31T04:29:27.195Z,88.15
2018-07-31T04:31:57.026Z,90.31
2018-07-31T04:34:26.186Z,90.49
2018-07-31T04:36:55.990Z,91.65
2018-07-31T04:39:26.862Z,91.64
2018-07-31T04:41:56.171Z,91.06
2018-07-31T04:44:25.291Z,89.72
2018-07-31T04:46:56.150Z,86.63
2018-07-31T04:49:25.317Z,82.08
2018-07-31T04:54:38.230Z,73.26
2018-07-31T04:57:07.331Z,70.13
2018-07-31T04:59:36.443Z,67.07
2018-07-31T05:02:05.574Z,63.86
2018-07-31T05:04:34.879Z,61.72
2018-07-31T05:07:03.998Z,60.60
2018-07-31T05:09:33.166Z,57.57
2018-07-31T05:12:02.278Z,58.70
2018-07-31T05:14:31.378Z,58.56
2018-07-31T05:17:00.490Z,57.92
2018-07-31T05:19:30.383Z,56.47
2018-07-31T05:21:59.496Z,56.54
2018-07-31T05:24:28.622Z,56.58
2018-07-31T05:26:57.732Z,54.64
2018-07-31T05:29:26.817Z,54.69
2018-07-31T05:31:56.649Z,54.44
2018-07-31T05:34:25.909Z,52.52
2018-07-31T05:36:55.083Z,49.47
2018-07-31T05:39:25.407Z,49.68
2018-07-31T05:41:54.666Z,50.09
2018-07-31T05:44:23.874Z,48.89
2018-07-31T05:46:52.797Z,50.19
2018-07-31T05:49:22.006Z,46.85
2018-07-31T05:54:20.960Z,46.88
2018-07-31T05:56:50.059Z,46.98
2018-07-31T05:59:19.181Z,46.65
2018-07-31T06:01:48.262Z,46.05
2018-07-31T06:04:17.362Z,45.68
2018-07-31T06:06:46.478Z,45.30
2018-07-31T06:09:15.574Z,41.98
2018-07-31T06:11:44.681Z,39.70
2018-07-31T06:14:13.809Z,40.79
2018-07-31T06:16:42.907Z,43.17
2018-07-31T06:19:12.782Z,41.78
2018-07-31T06:21:41.903Z,42.90
2018-07-31T06:24:10.990Z,45.57
2018-07-31T06:26:40.476Z,41.95
2018-07-31T06:29:09.705Z,44.20
2018-07-31T06:31:38.818Z,44.21
2018-07-31T06:34:07.990Z,45.00
2018-07-31T06:36:37.186Z,43.40
2018-07-31T06:39:09.535Z,43.48
2018-07-31T06:41:39.418Z,43.19
2018-07-31T06:44:08.726Z,42.27
2018-07-31T06:46:38.754Z,44.00
2018-07-31T06:49:08.318Z,41.50
2018-07-31T06:51:37.414Z,40.69
2018-07-31T06:54:06.581Z,37.50
2018-07-31T06:56:35.771Z,36.31
2018-07-31T06:59:04.829Z,36.48
2018-07-31T07:01:33.955Z,37.90
2018-07-31T07:04:03.051Z,34.34
2018-07-31T07:06:32.163Z,32.54
2018-07-31T07:09:01.445Z,31.16
2018-07-31T07:11:30.598Z,34.85
2018-07-31T07:13:59.706Z,33.51
2018-07-31T07:16:28.863Z,32.85
2018-07-31T07:18:58.353Z,31.94
2018-07-31T07:21:28.280Z,34.16
2018-07-31T07:23:57.401Z,34.50
2018-07-31T07:26:26.637Z,32.19
2018-07-31T07:28:55.558Z,29.92
2018-07-31T07:31:24.672Z,31.65
2018-07-31T07:33:53.871Z,31.19
2018-07-31T07:36:22.975Z,30.06
2018-07-31T07:38:52.806Z,31.77
2018-07-31T07:41:22.787Z,31.38
2018-07-31T07:43:52.630Z,32.87
2018-07-31T07:46:22.013Z,32.65
2018-07-31T07:48:53.116Z,31.61
2018-07-31T07:51:22.501Z,32.02
2018-07-31T07:53:52.307Z,29.19
2018-07-31T07:56:21.417Z,27.06
2018-07-31T07:58:51.287Z,28.75
2018-07-31T08:01:20.385Z,27.45
2018-07-31T08:03:50.143Z,24.49
2018-07-31T08:06:19.201Z,23.18
2018-07-31T08:08:48.303Z,25.56
2018-07-31T08:11:17.819Z,25.55
2018-07-31T08:13:46.930Z,24.49
2018-07-31T08:16:16.054Z,24.73
2018-07-31T08:18:45.214Z,23.71
2018-07-31T08:21:14.283Z,21.03
2018-07-31T08:23:43.374Z,22.09
2018-07-31T08:26:12.541Z,20.25
2018-07-31T08:28:42.261Z,20.84
2018-07-31T08:31:11.430Z,20.53
2018-07-31T08:33:41.381Z,21.84
2018-07-31T08:36:10.510Z,20.62
2018-07-31T08:38:39.613Z,19.68
2018-07-31T08:41:08.922Z,22.85
2018-07-31T08:43:38.314Z,22.96
2018-07-31T08:46:07.690Z,22.07
2018-07-31T08:48:37.510Z,20.26
2018-07-31T08:51:06.945Z,20.03
2018-07-31T08:53:36.107Z,21.10
2018-07-31T08:56:05.653Z,19.15
2018-07-31T08:58:35.834Z,16.88
2018-07-31T09:01:04.966Z,16.01
2018-07-31T09:03:34.429Z,16.92
2018-07-31T09:06:03.557Z,17.47
2018-07-31T09:08:32.785Z,18.36
2018-07-31T09:11:01.818Z,18.02
2018-07-31T09:13:30.917Z,16.93
2018-07-31T09:16:00.071Z,15.53
2018-07-31T09:18:29.138Z,15.19
2018-07-31T09:20:58.205Z,16.74
2018-07-31T09:23:27.322Z,15.92
2018-07-31T09:25:59.726Z,15.24
2018-07-31T09:28:30.326Z,14.61
2018-07-31T09:31:04.797Z,15.43
2018-07-31T09:33:34.162Z,14.44
2018-07-31T09:36:03.250Z,14.43
2018-07-31T09:38:32.339Z,14.56
2018-07-31T09:41:01.470Z,14.02
2018-07-31T09:43:30.542Z,14.12
2018-07-31T09:45:59.793Z,14.60
2018-07-31T09:48:29.116Z,14.06
2018-07-31T09:50:58.319Z,14.88
2018-07-31T09:53:28.190Z,15.07
2018-07-31T09:55:56.890Z,12.86
2018-07-31T09:58:26.019Z,14.10
2018-07-31T10:01:00.407Z,15.08
2018-07-31T10:03:29.505Z,15.56
2018-07-31T10:05:58.603Z,16.91
2018-07-31T10:08:27.734Z,15.31
2018-07-31T10:10:57.575Z,13.26
2018-07-31T10:13:26.690Z,12.24
2018-07-31T10:15:55.783Z,10.58
2018-07-31T10:18:24.862Z,9.26
2018-07-31T10:20:53.978Z,9.85
2018-07-31T10:23:23.090Z,9.74
2018-07-31T10:25:52.187Z,9.82
2018-07-31T10:28:21.250Z,9.70
2018-07-31T10:30:50.592Z,10.20
2018-07-31T10:33:19.586Z,9.24
2018-07-31T10:35:48.706Z,9.97
2018-07-31T10:38:17.818Z,9.58
2018-07-31T10:40:46.895Z,10.04
2018-07-31T10:43:16.006Z,10.31
2018-07-31T10:45:45.247Z,9.37
2018-07-31T10:48:14.519Z,8.54
2018-07-31T10:50:43.901Z,8.71
2018-07-31T10:53:13.089Z,9.08
2018-07-31T10:55:42.550Z,8.69
2018-07-31T10:58:12.408Z,8.27
2018-07-31T11:00:41.490Z,7.60
2018-07-31T11:03:10.695Z,8.57
2018-07-31T11:05:39.643Z,9.97
2018-07-31T11:08:08.774Z,11.41
2018-07-31T11:10:37.910Z,12.09
2018-07-31T11:13:07.939Z,12.13
2018-07-31T11:15:37.009Z,10.51
2018-07-31T11:18:06.141Z,10.08
2018-07-31T11:20:35.281Z,9.31
2018-07-31T11:23:04.457Z,8.91
2018-07-31T11:25:34.358Z,10.61
2018-07-31T11:28:03.500Z,12.05
2018-07-31T11:30:32.586Z,11.53
2018-07-31T11:33:01.696Z,11.21
2018-07-31T11:35:30.784Z,9.46
2018-07-31T11:37:59.898Z,9.18
2018-07-31T11:40:29.026Z,9.09
2018-07-31T11:42:58.123Z,9.69
2018-07-31T11:45:27.222Z,9.23
2018-07-31T11:47:56.894Z,9.99
2018-07-31T11:50:26.220Z,9.00
2018-07-31T11:52:56.124Z,9.56
2018-07-31T11:55:25.441Z,9.71
2018-07-31T11:57:54.551Z,8.96
2018-07-31T12:00:23.674Z,8.24
2018-07-31T12:02:52.922Z,8.36
2018-07-31T12:05:22.041Z,9.77
2018-07-31T12:07:51.200Z,10.14
2018-07-31T12:10:20.477Z,9.43
2018-07-31T12:12:49.634Z,8.98
2018-07-31T12:15:18.787Z,9.96
2018-07-31T12:17:47.887Z,10.12
2018-07-31T12:20:16.957Z,9.56
2018-07-31T12:22:46.094Z,8.89
2018-07-31T12:25:15.970Z,9.74
2018-07-31T12:27:45.075Z,8.62
2018-07-31T12:30:14.174Z,7.85
2018-07-31T12:32:43.267Z,7.75
2018-07-31T12:35:12.614Z,9.11
2018-07-31T12:37:41.717Z,8.21
2018-07-31T12:40:10.819Z,6.87
2018-07-31T12:42:40.321Z,7.79
2018-07-31T12:45:09.491Z,7.55
2018-07-31T12:47:38.676Z,6.59
2018-07-31T12:50:08.532Z,5.71
2018-07-31T12:52:37.810Z,8.01
2018-07-31T12:55:07.524Z,8.66
2018-07-31T12:57:37.507Z,7.35
2018-07-31T13:00:07.003Z,8.66
2018-07-31T13:02:36.861Z,9.79
2018-07-31T13:05:06.666Z,10.43
2018-07-31T13:07:35.767Z,12.99
2018-07-31T13:10:05.108Z,12.54
2018-07-31T13:12:34.202Z,12.70
2018-07-31T13:15:03.309Z,12.67
2018-07-31T13:17:32.406Z,12.86
2018-07-31T13:20:01.516Z,13.21
2018-07-31T13:22:30.635Z,14.09
2018-07-31T13:24:59.921Z,14.50
2018-07-31T13:27:29.046Z,14.00
2018-07-31T13:29:59.398Z,14.22
2018-07-31T13:32:28.494Z,14.49
2018-07-31T13:34:57.970Z,16.22
2018-07-31T13:37:27.054Z,16.70
2018-07-31T13:39:56.194Z,15.45
2018-07-31T13:42:26.133Z,15.31
2018-07-31T13:44:55.671Z,17.00
2018-07-31T13:47:25.048Z,16.95
2018-07-31T13:49:54.197Z,15.10
2018-07-31T13:52:24.235Z,17.76
2018-07-31T13:54:54.047Z,17.93
2018-07-31T13:57:23.183Z,17.61
2018-07-31T13:59:53.115Z,16.47
2018-07-31T14:02:22.245Z,17.84
2018-07-31T14:04:51.354Z,18.85
2018-07-31T14:07:20.569Z,17.67
2018-07-31T14:09:49.747Z,16.24
2018-07-31T14:12:18.881Z,16.71
2018-07-31T14:14:48.381Z,16.30
2018-07-31T14:17:17.526Z,16.33
2018-07-31T14:19:46.677Z,16.36
2018-07-31T14:22:16.546Z,16.78
2018-07-31T14:24:45.768Z,16.57
2018-07-31T14:27:14.991Z,14.99
2018-07-31T14:29:44.133Z,15.20
2018-07-31T14:32:13.354Z,15.25
2018-07-31T14:34:42.682Z,14.59
2018-07-31T14:37:11.953Z,16.36
2018-07-31T14:39:41.100Z,18.03
2018-07-31T14:42:10.222Z,16.99
2018-07-31T14:44:39.498Z,16.56
2018-07-31T14:47:09.350Z,16.54
2018-07-31T14:49:39.101Z,16.96
2018-07-31T14:52:08.278Z,17.83
2018-07-31T14:54:37.881Z,17.91
2018-07-31T14:57:06.683Z,16.17
2018-07-31T14:59:36.370Z,16.28
2018-07-31T15:02:05.162Z,17.05
2018-07-31T15:04:34.432Z,16.40
2018-07-31T15:07:03.529Z,17.50
2018-07-31T15:09:32.688Z,18.25
2018-07-31T15:12:01.832Z,18.96
2018-07-31T15:14:30.621Z,18.76
2018-07-31T15:16:59.466Z,18.18
2018-07-31T15:19:29.593Z,18.65
2018-07-31T15:21:58.946Z,19.41
2018-07-31T15:24:29.016Z,20.06
2018-07-31T15:26:58.002Z,19.40
2018-07-31T15:29:27.150Z,19.86
2018-07-31T15:31:56.747Z,19.92
2018-07-31T15:34:25.886Z,20.26
2018-07-31T15:36:55.007Z,21.00
2018-07-31T15:39:24.118Z,20.27
2018-07-31T15:41:53.266Z,20.28
2018-07-31T15:44:22.398Z,21.04
2018-07-31T15:46:51.522Z,20.39
2018-07-31T15:49:20.622Z,19.70
2018-07-31T15:51:49.789Z,19.71
2018-07-31T15:54:18.886Z,19.90
2018-07-31T15:56:47.994Z,20.95
2018-07-31T15:59:17.297Z,20.58
2018-07-31T16:01:47.037Z,19.96
2018-07-31T16:04:17.462Z,19.83
2018-07-31T16:06:46.827Z,20.51
2018-07-31T16:09:16.136Z,19.50
2018-07-31T16:11:45.868Z,20.83
2018-07-31T16:14:14.510Z,20.04
2018-07-31T16:16:43.646Z,20.85
2018-07-31T16:19:13.637Z,20.92
2018-07-31T16:21:42.969Z,21.99
2018-07-31T16:24:12.103Z,21.86
2018-07-31T16:26:41.242Z,22.16
2018-07-31T16:29:10.353Z,20.56
2018-07-31T16:31:39.462Z,21.56
2018-07-31T16:34:11.602Z,21.91
2018-07-31T16:36:40.699Z,21.04
2018-07-31T16:39:10.810Z,20.77
2018-07-31T16:41:40.686Z,21.63
2018-07-31T16:44:10.250Z,21.34
2018-07-31T16:46:39.361Z,22.21
2018-07-31T16:49:08.802Z,22.32
2018-07-31T16:51:37.931Z,23.07
2018-07-31T16:54:07.062Z,22.29
2018-07-31T16:56:36.694Z,23.16
2018-07-31T16:59:06.046Z,23.18
2018-07-31T17:01:35.302Z,23.66
2018-07-31T17:04:05.059Z,23.19
2018-07-31T17:06:34.166Z,23.37
2018-07-31T17:09:06.283Z,23.30
2018-07-31T17:11:36.086Z,23.39
2018-07-31T17:14:05.676Z,24.29
2018-07-31T17:16:35.621Z,24.68
2018-07-31T17:19:05.926Z,24.25
2018-07-31T17:21:34.733Z,25.17
2018-07-31T17:24:04.342Z,26.02
2018-07-31T17:26:34.806Z,26.14
2018-07-31T17:29:04.331Z,26.55
2018-07-31T17:31:33.661Z,26.80
2018-07-31T17:34:03.321Z,26.64
2018-07-31T17:36:33.022Z,26.94
2018-07-31T17:39:02.408Z,27.20
2018-07-31T17:41:32.158Z,26.65
2018-07-31T17:44:02.558Z,27.46
2018-07-31T17:46:32.000Z,27.38
2018-07-31T17:49:01.650Z,28.27
2018-07-31T17:51:31.354Z,28.43
2018-07-31T17:54:01.439Z,29.82
2018-07-31T17:56:30.981Z,30.19
2018-07-31T17:59:00.954Z,30.47
2018-07-31T18:01:30.875Z,30.69
2018-07-31T18:04:00.758Z,30.63
2018-07-31T18:06:29.927Z,30.77
2018-07-31T18:08:59.895Z,30.79
2018-07-31T18:11:29.042Z,30.99
2018-07-31T18:13:58.789Z,31.18
2018-07-31T18:16:28.446Z,32.03
2018-07-31T18:18:58.178Z,31.51
2018-07-31T18:21:27.783Z,31.52
2018-07-31T18:23:57.583Z,32.00
2018-07-31T18:26:26.931Z,32.32
2018-07-31T18:28:56.862Z,32.38
2018-07-31T18:31:26.711Z,31.82
2018-07-31T18:34:27.549Z,32.52
2018-07-31T18:36:57.914Z,32.90
2018-07-31T18:39:28.119Z,33.07
2018-07-31T18:41:56.633Z,32.84
2018-07-31T18:44:25.747Z,33.00
2018-07-31T18:46:54.886Z,33.33
2018-07-31T18:49:24.003Z,33.75
2018-07-31T18:51:53.258Z,33.55
2018-07-31T18:54:21.875Z,33.22
2018-07-31T18:56:51.166Z,33.38
2018-07-31T18:59:20.283Z,33.96
2018-07-31T19:01:49.865Z,34.05
2018-07-31T19:04:19.874Z,34.57
2018-07-31T19:06:49.728Z,35.83
2018-07-31T19:09:19.746Z,34.35
2018-07-31T19:11:49.598Z,34.31
2018-07-31T19:14:19.554Z,34.69
2018-07-31T19:16:48.841Z,34.70
2018-07-31T19:19:18.462Z,37.05
2018-07-31T19:21:48.478Z,38.72
2018-07-31T19:24:18.351Z,38.85
2018-07-31T19:26:48.254Z,39.83
2018-07-31T19:29:18.249Z,40.00
2018-07-31T19:31:48.122Z,40.44
2018-07-31T19:34:18.496Z,40.69
2018-07-31T19:36:47.875Z,40.83
2018-07-31T19:39:17.718Z,41.85
2018-07-31T19:41:47.854Z,41.88
2018-07-31T19:44:17.169Z,42.30
2018-07-31T19:46:46.706Z,42.30
2018-07-31T19:49:15.825Z,42.78
2018-07-31T19:51:45.804Z,43.10
2018-07-31T19:54:15.386Z,42.99
2018-07-31T19:56:44.186Z,43.47
2018-07-31T19:59:13.386Z,42.93
2018-07-31T20:01:42.957Z,42.80
2018-07-31T20:04:13.382Z,43.39
2018-07-31T20:06:42.949Z,42.93
2018-07-31T20:09:16.859Z,42.61
2018-07-31T20:11:46.803Z,42.64
2018-07-31T20:14:18.894Z,43.10
2018-07-31T20:16:48.018Z,43.21
2018-07-31T20:19:17.138Z,43.61
2018-07-31T20:21:46.298Z,42.71
2018-07-31T20:24:15.385Z,42.40
2018-07-31T20:26:44.506Z,42.82
2018-07-31T20:29:14.520Z,41.89
2018-07-31T20:31:44.333Z,41.52
2018-07-31T20:34:13.447Z,41.01
2018-07-31T20:36:43.530Z,40.94
2018-07-31T20:39:13.414Z,40.87
2018-07-31T20:41:42.701Z,40.23
2018-07-31T20:44:12.296Z,40.94
2018-07-31T20:46:41.668Z,40.09
2018-07-31T20:49:11.999Z,40.05
2018-07-31T20:51:41.274Z,39.96
2018-07-31T20:54:10.467Z,39.20
2018-07-31T20:56:39.991Z,39.58
2018-07-31T20:59:09.712Z,39.18
2018-07-31T21:01:39.253Z,40.13
2018-07-31T21:04:11.302Z,39.08
2018-07-31T21:06:40.911Z,39.50
2018-07-31T21:09:12.205Z,39.03
2018-07-31T21:11:41.558Z,39.75
2018-07-31T21:14:11.014Z,40.33
2018-07-31T21:16:40.630Z,40.16
2018-07-31T21:19:09.740Z,40.79
2018-07-31T21:21:38.887Z,41.49
2018-07-31T21:24:08.257Z,41.93
2018-07-31T21:26:38.354Z,41.99
2018-07-31T21:29:07.754Z,42.49
2018-07-31T21:31:37.123Z,43.75
2018-07-31T21:34:06.701Z,44.36
2018-07-31T21:36:35.820Z,43.83
2018-07-31T21:39:10.480Z,44.31
2018-07-31T21:41:39.947Z,43.79
2018-07-31T21:44:09.120Z,44.91
2018-07-31T21:46:39.186Z,43.72
2018-07-31T21:49:08.827Z,43.82
2018-07-31T21:51:38.562Z,44.59
2018-07-31T21:54:07.830Z,43.77
2018-07-31T21:56:37.817Z,45.46
2018-07-31T21:59:07.150Z,45.04
2018-07-31T22:01:36.734Z,45.66
2018-07-31T22:04:04.994Z,46.28
2018-07-31T22:06:34.276Z,46.45
2018-07-31T22:09:04.703Z,47.85
2018-07-31T22:11:34.556Z,48.41
2018-07-31T22:14:03.842Z,47.88
2018-07-31T22:16:33.406Z,48.75
2018-07-31T22:19:02.662Z,48.39
2018-07-31T22:21:31.335Z,49.74
2018-07-31T22:24:00.111Z,49.75
2018-07-31T22:26:29.246Z,50.03
2018-07-31T22:28:58.364Z,50.79
2018-07-31T22:31:27.455Z,50.88
2018-07-31T22:33:57.336Z,51.49
2018-07-31T22:36:26.458Z,52.64
2018-07-31T22:38:55.697Z,51.93
2018-07-31T22:41:24.883Z,52.58
2018-07-31T22:43:53.982Z,53.04
2018-07-31T22:46:23.133Z,53.33
2018-07-31T22:48:52.238Z,54.34
2018-07-31T22:51:21.459Z,53.96
2018-07-31T22:53:50.882Z,53.91
2018-07-31T22:56:19.971Z,54.32
2018-07-31T22:58:49.051Z,54.39
2018-07-31T23:01:18.194Z,54.43
2018-07-31T23:03:47.277Z,55.40
2018-07-31T23:06:16.371Z,55.45
2018-07-31T23:08:46.359Z,55.93
2018-07-31T23:11:16.180Z,56.34
2018-07-31T23:13:45.278Z,55.86
2018-07-31T23:16:15.197Z,56.56
2018-07-31T23:18:45.119Z,57.02
2018-07-31T23:21:14.241Z,57.55
2018-07-31T23:23:44.962Z,57.71
2018-07-31T23:26:14.038Z,57.13
2018-07-31T23:28:43.234Z,56.35
2018-07-31T23:31:12.234Z,57.06
2018-07-31T23:33:41.377Z,56.78
2018-07-31T23:36:10.467Z,56.51
2018-07-31T23:38:39.599Z,57.13
2018-07-31T23:41:08.978Z,57.06
2018-07-31T23:43:38.105Z,57.67
2018-07-31T23:46:07.621Z,57.87
2018-07-31T23:48:36.713Z,58.37
2018-07-31T23:51:05.881Z,58.27
2018-07-31T23:53:35.738Z,58.28
2018-07-31T23:56:04.842Z,57.84
2018-07-31T23:58:33.955Z,58.48
